createdAt,value
2022-10-01T00:00:38.905Z,0
2022-10-01T00:01:43.526Z,0
2022-10-01T00:02:46.610Z,0
2022-10-01T00:04:21.474Z,0
2022-10-01T00:05:24.231Z,0
2022-10-01T00:06:26.885Z,0
2022-10-01T00:08:01.391Z,0
2022-10-01T00:09:04.137Z,0
2022-10-01T00:10:07.065Z,0
2022-10-01T00:11:42.453Z,0
2022-10-01T00:12:45.290Z,0
2022-10-01T00:13:48.056Z,0
2022-10-01T00:15:30.579Z,0
2022-10-01T00:16:33.981Z,0
2022-10-01T00:17:36.872Z,0
2022-10-01T00:19:11.295Z,0
2022-10-01T00:20:25.215Z,0
2022-10-01T00:21:27.986Z,0
2022-10-01T00:23:02.562Z,0
2022-10-01T00:24:05.311Z,0
2022-10-01T00:25:07.977Z,0
2022-10-01T00:26:42.822Z,0
2022-10-01T00:27:45.608Z,0
2022-10-01T00:28:48.657Z,0
2022-10-01T00:30:23.102Z,0
2022-10-01T00:31:26.434Z,0
2022-10-01T00:32:29.205Z,0
2022-10-01T00:34:04.177Z,0
2022-10-01T00:35:06.851Z,0
2022-10-01T00:36:09.509Z,0
2022-10-01T00:37:44.036Z,0
2022-10-01T00:38:47.016Z,0
2022-10-01T00:39:50.002Z,0
2022-10-01T00:41:24.533Z,0
2022-10-01T00:42:27.737Z,0
2022-10-01T00:43:30.476Z,0
2022-10-01T00:45:05.332Z,0
2022-10-01T00:46:08.931Z,0
2022-10-01T00:47:11.575Z,0
2022-10-01T00:48:46.181Z,0
2022-10-01T00:49:48.992Z,0
2022-10-01T00:50:51.743Z,0
2022-10-01T00:52:26.262Z,0
2022-10-01T00:53:29.013Z,0
2022-10-01T00:54:31.671Z,0
2022-10-01T00:56:06.393Z,0
2022-10-01T00:57:09.126Z,0
2022-10-01T00:58:11.778Z,0
2022-10-01T00:59:46.498Z,0
2022-10-01T01:00:40.359Z,0
2022-10-01T01:01:44.239Z,0
2022-10-01T01:02:47.697Z,0
2022-10-01T01:04:22.545Z,0
2022-10-01T01:05:25.352Z,0
2022-10-01T01:06:28.019Z,0
2022-10-01T01:08:02.989Z,0
2022-10-01T01:09:06.093Z,0
2022-10-01T01:10:08.885Z,0
2022-10-01T01:11:43.841Z,0
2022-10-01T01:12:46.729Z,0
2022-10-01T01:13:49.418Z,0
2022-10-01T01:15:24.151Z,0
2022-10-01T01:16:27.385Z,0
2022-10-01T01:17:30.288Z,0
2022-10-01T01:19:04.822Z,0
2022-10-01T01:20:07.639Z,0
2022-10-01T01:21:10.352Z,0
2022-10-01T01:22:45.835Z,0
2022-10-01T01:23:48.454Z,0
2022-10-01T01:24:51.266Z,0
2022-10-01T01:26:26.105Z,0
2022-10-01T01:27:28.793Z,0
2022-10-01T01:28:31.840Z,0
2022-10-01T01:30:06.855Z,0
2022-10-01T01:31:10.272Z,0
2022-10-01T01:32:19.624Z,0
2022-10-01T01:33:54.375Z,0
2022-10-01T01:34:57.061Z,0
2022-10-01T01:35:59.940Z,0
2022-10-01T01:37:34.691Z,0
2022-10-01T01:38:37.510Z,0
2022-10-01T01:39:40.479Z,0
2022-10-01T01:41:15.205Z,0
2022-10-01T01:42:18.069Z,0
2022-10-01T01:43:21.050Z,0
2022-10-01T01:44:55.651Z,0
2022-10-01T01:45:59.181Z,0
2022-10-01T01:47:02.075Z,0
2022-10-01T01:48:36.561Z,0
2022-10-01T01:49:39.248Z,0
2022-10-01T01:50:41.895Z,0
2022-10-01T01:52:16.313Z,0
2022-10-01T01:53:19.013Z,0
2022-10-01T01:54:21.804Z,0
2022-10-01T01:55:56.285Z,0
2022-10-01T01:56:59.027Z,0
2022-10-01T01:58:01.675Z,0
2022-10-01T01:59:36.342Z,0
2022-10-01T02:00:39.805Z,0
2022-10-01T02:01:44.170Z,0
2022-10-01T02:02:47.580Z,0
2022-10-01T02:04:22.336Z,0
2022-10-01T02:05:25.346Z,0
2022-10-01T02:06:28.126Z,0
2022-10-01T02:08:02.725Z,0
2022-10-01T02:09:05.564Z,0
2022-10-01T02:10:08.280Z,0
2022-10-01T02:11:43.694Z,0
2022-10-01T02:12:46.582Z,0
2022-10-01T02:13:49.350Z,0
2022-10-01T02:15:24.015Z,0
2022-10-01T02:16:27.643Z,0
2022-10-01T02:17:30.657Z,0
2022-10-01T02:19:05.109Z,0
2022-10-01T02:20:07.774Z,0
2022-10-01T02:21:10.401Z,0
2022-10-01T02:22:45.529Z,0
2022-10-01T02:23:48.353Z,0
2022-10-01T02:24:51.165Z,0
2022-10-01T02:26:25.668Z,0
2022-10-01T02:27:28.486Z,0
2022-10-01T02:28:31.794Z,0
2022-10-01T02:30:06.328Z,0
2022-10-01T02:31:09.523Z,0
2022-10-01T02:32:12.498Z,0
2022-10-01T02:33:46.976Z,0
2022-10-01T02:34:49.807Z,0
2022-10-01T02:35:52.721Z,0
2022-10-01T02:37:27.456Z,0
2022-10-01T02:38:30.208Z,0
2022-10-01T02:39:33.283Z,0
2022-10-01T02:41:07.660Z,0
2022-10-01T02:42:10.617Z,0
2022-10-01T02:43:13.324Z,0
2022-10-01T02:44:51.889Z,0
2022-10-01T02:45:55.256Z,0
2022-10-01T02:46:58.123Z,0
2022-10-01T02:48:32.507Z,0
2022-10-01T02:49:41.311Z,0
2022-10-01T02:50:43.986Z,0
2022-10-01T02:52:18.450Z,0
2022-10-01T02:53:21.219Z,0
2022-10-01T02:54:23.977Z,0
2022-10-01T02:55:58.629Z,0
2022-10-01T02:57:13.188Z,0
2022-10-01T02:58:16.031Z,0
2022-10-01T02:59:50.633Z,0
2022-10-01T03:00:40.651Z,0
2022-10-01T03:01:44.309Z,0
2022-10-01T03:02:47.803Z,0
2022-10-01T03:04:22.459Z,0
2022-10-01T03:05:25.210Z,0
2022-10-01T03:06:27.832Z,0
2022-10-01T03:08:02.638Z,0
2022-10-01T03:09:05.568Z,0
2022-10-01T03:10:08.409Z,0
2022-10-01T03:11:49.911Z,0
2022-10-01T03:12:52.852Z,0
2022-10-01T03:13:55.524Z,0
2022-10-01T03:15:30.170Z,0
2022-10-01T03:16:33.667Z,0
2022-10-01T03:17:36.496Z,0
2022-10-01T03:19:10.861Z,0
2022-10-01T03:20:13.853Z,0
2022-10-01T03:21:16.634Z,0
2022-10-01T03:22:51.223Z,0
2022-10-01T03:23:53.928Z,0
2022-10-01T03:24:56.856Z,0
2022-10-01T03:26:31.475Z,0
2022-10-01T03:27:34.333Z,0
2022-10-01T03:28:37.576Z,0
2022-10-01T03:30:12.169Z,0
2022-10-01T03:31:15.154Z,0
2022-10-01T03:32:18.249Z,0
2022-10-01T03:33:52.909Z,0
2022-10-01T03:34:55.483Z,0
2022-10-01T03:35:58.464Z,0
2022-10-01T03:37:33.126Z,0
2022-10-01T03:38:35.919Z,0
2022-10-01T03:39:38.801Z,0
2022-10-01T03:41:13.371Z,0
2022-10-01T03:42:16.360Z,0
2022-10-01T03:43:19.043Z,0
2022-10-01T03:44:53.840Z,0
2022-10-01T03:45:57.169Z,0
2022-10-01T03:47:00.089Z,0
2022-10-01T03:48:34.536Z,0
2022-10-01T03:49:37.300Z,0
2022-10-01T03:50:39.935Z,0
2022-10-01T03:52:14.563Z,0
2022-10-01T03:53:17.387Z,0
2022-10-01T03:54:20.375Z,0
2022-10-01T03:55:54.750Z,0
2022-10-01T03:56:57.531Z,0
2022-10-01T03:58:00.462Z,0
2022-10-01T03:59:35.203Z,0
2022-10-01T04:00:40.184Z,0
2022-10-01T04:01:45.078Z,0
2022-10-01T04:02:49.333Z,0
2022-10-01T04:04:23.892Z,0
2022-10-01T04:06:09.728Z,0
2022-10-01T04:07:12.730Z,0
2022-10-01T04:08:16.220Z,0
2022-10-01T04:09:52.614Z,0
2022-10-01T04:10:55.631Z,0
2022-10-01T04:11:59.707Z,0
2022-10-01T04:13:34.663Z,0
2022-10-01T04:14:37.694Z,0
2022-10-01T04:15:40.738Z,0
2022-10-01T04:17:16.327Z,0
2022-10-01T04:18:19.361Z,0
2022-10-01T04:19:22.233Z,0
2022-10-01T04:20:57.053Z,0
2022-10-01T04:22:01.018Z,0
2022-10-01T04:23:04.032Z,0
2022-10-01T04:24:38.670Z,0
2022-10-01T04:25:41.722Z,0
2022-10-01T04:26:44.633Z,0
2022-10-01T04:28:19.683Z,0
2022-10-01T04:29:22.838Z,0
2022-10-01T04:30:25.807Z,0
2022-10-01T04:32:02.050Z,0
2022-10-01T04:33:05.060Z,0
2022-10-01T04:34:08.006Z,0
2022-10-01T04:35:42.796Z,0
2022-10-01T04:36:45.737Z,0
2022-10-01T04:37:48.713Z,0
2022-10-01T04:39:30.014Z,0
2022-10-01T04:40:32.822Z,0
2022-10-01T04:41:35.900Z,0
2022-10-01T04:43:11.240Z,0
2022-10-01T04:44:14.249Z,0
2022-10-01T04:45:17.342Z,0
2022-10-01T04:46:52.910Z,0
2022-10-01T04:48:00.280Z,0
2022-10-01T04:49:03.323Z,0
2022-10-01T04:50:38.344Z,0
2022-10-01T04:51:42.045Z,0
2022-10-01T04:52:44.956Z,0
2022-10-01T04:54:19.800Z,0
2022-10-01T04:55:22.825Z,0
2022-10-01T04:56:25.822Z,0
2022-10-01T04:58:00.678Z,0
2022-10-01T04:59:03.809Z,0
2022-10-01T05:00:40.400Z,0
2022-10-01T05:01:45.214Z,0
2022-10-01T05:02:48.811Z,0
2022-10-01T05:04:23.643Z,0
2022-10-01T05:05:26.465Z,0
2022-10-01T05:06:29.385Z,0
2022-10-01T05:08:04.065Z,0
2022-10-01T05:09:07.164Z,0
2022-10-01T05:10:10.039Z,0
2022-10-01T05:11:45.609Z,0
2022-10-01T05:12:52.852Z,0
2022-10-01T05:13:55.800Z,0
2022-10-01T05:15:30.760Z,0
2022-10-01T05:16:34.282Z,0
2022-10-01T05:17:37.138Z,0
2022-10-01T05:19:12.055Z,0
2022-10-01T05:20:15.300Z,0
2022-10-01T05:21:18.260Z,0
2022-10-01T05:22:53.086Z,0
2022-10-01T05:23:55.895Z,0
2022-10-01T05:24:58.723Z,0
2022-10-01T05:26:33.437Z,0
2022-10-01T05:27:36.474Z,0
2022-10-01T05:28:45.207Z,0
2022-10-01T05:30:20.184Z,0
2022-10-01T05:31:23.144Z,0
2022-10-01T05:32:26.130Z,0
2022-10-01T05:34:00.722Z,0
2022-10-01T05:35:10.454Z,0
2022-10-01T05:36:13.591Z,0
2022-10-01T05:37:48.225Z,0
2022-10-01T05:38:51.309Z,0
2022-10-01T05:39:54.080Z,0
2022-10-01T05:41:29.295Z,0
2022-10-01T05:42:34.852Z,0
2022-10-01T05:43:38.103Z,0
2022-10-01T05:45:12.789Z,0
2022-10-01T05:46:16.090Z,0
2022-10-01T05:47:19.143Z,0
2022-10-01T05:48:54.191Z,0
2022-10-01T05:49:57.357Z,0
2022-10-01T05:51:00.424Z,0
2022-10-01T05:52:35.919Z,0
2022-10-01T05:53:38.746Z,0
2022-10-01T05:54:41.566Z,0
2022-10-01T05:56:16.468Z,0
2022-10-01T05:57:19.442Z,0
2022-10-01T05:58:22.299Z,0
2022-10-01T06:00:00.339Z,0
2022-10-01T06:00:40.912Z,0
2022-10-01T06:01:44.531Z,0
2022-10-01T06:02:48.555Z,0
2022-10-01T06:04:23.702Z,0
2022-10-01T06:05:26.714Z,0
2022-10-01T06:06:30.061Z,0
2022-10-01T06:08:04.893Z,0
2022-10-01T06:09:07.728Z,0
2022-10-01T06:10:10.686Z,0
2022-10-01T06:11:45.837Z,0
2022-10-01T06:12:48.674Z,0
2022-10-01T06:13:51.429Z,0
2022-10-01T06:15:26.753Z,0
2022-10-01T06:16:30.282Z,0
2022-10-01T06:17:33.279Z,0
2022-10-01T06:19:08.460Z,0
2022-10-01T06:20:11.465Z,0
2022-10-01T06:21:14.550Z,0
2022-10-01T06:22:50.230Z,0.435
2022-10-01T06:23:53.159Z,0
2022-10-01T06:25:01.643Z,0
2022-10-01T06:26:36.571Z,0
2022-10-01T06:27:39.425Z,0
2022-10-01T06:28:42.989Z,0
2022-10-01T06:30:17.825Z,0
2022-10-01T06:31:20.800Z,0
2022-10-01T06:32:24.141Z,0.435
2022-10-01T06:33:58.662Z,0
2022-10-01T06:35:01.694Z,0.435
2022-10-01T06:36:04.650Z,0.435
2022-10-01T06:37:39.542Z,0.435
2022-10-01T06:38:42.265Z,0.435
2022-10-01T06:39:45.380Z,0.435
2022-10-01T06:41:20.185Z,0.435
2022-10-01T06:42:23.131Z,0.435
2022-10-01T06:43:26.033Z,0.585
2022-10-01T06:45:00.856Z,0.435
2022-10-01T06:46:04.585Z,0.435
2022-10-01T06:47:07.655Z,0.435
2022-10-01T06:48:42.979Z,0.435
2022-10-01T06:49:47.617Z,0.435
2022-10-01T06:50:50.997Z,0.435
2022-10-01T06:52:25.816Z,0
2022-10-01T06:53:28.861Z,0
2022-10-01T06:54:31.848Z,0
2022-10-01T06:56:06.629Z,0
2022-10-01T06:57:09.512Z,0.435
2022-10-01T06:58:12.418Z,0.435
2022-10-01T06:59:47.268Z,0.435
2022-10-01T07:00:40.211Z,0.435
2022-10-01T07:01:45.159Z,0.435
2022-10-01T07:02:48.649Z,0.735
2022-10-01T07:04:23.700Z,0.735
2022-10-01T07:05:26.723Z,0.585
2022-10-01T07:06:29.638Z,0.735
2022-10-01T07:08:04.436Z,0.585
2022-10-01T07:09:07.359Z,0.735
2022-10-01T07:10:10.556Z,0.885
2022-10-01T07:11:45.708Z,0.885
2022-10-01T07:12:48.557Z,0.885
2022-10-01T07:13:54.557Z,0.585
2022-10-01T07:15:29.769Z,0.585
2022-10-01T07:16:33.385Z,0.885
2022-10-01T07:17:36.483Z,0.885
2022-10-01T07:19:11.895Z,0.885
2022-10-01T07:20:14.887Z,0.885
2022-10-01T07:21:18.150Z,1.02
2022-10-01T07:22:52.615Z,1.02
2022-10-01T07:23:55.549Z,0.885
2022-10-01T07:24:58.355Z,0.885
2022-10-01T07:26:33.036Z,1.02
2022-10-01T07:27:35.857Z,1.02
2022-10-01T07:28:39.701Z,1.02
2022-10-01T07:30:14.535Z,1.02
2022-10-01T07:31:17.629Z,1.02
2022-10-01T07:32:20.947Z,1.02
2022-10-01T07:33:55.659Z,1.17
2022-10-01T07:34:58.772Z,1.17
2022-10-01T07:36:01.711Z,1.02
2022-10-01T07:37:36.536Z,1.17
2022-10-01T07:38:39.597Z,1.02
2022-10-01T07:39:42.179Z,1.17
2022-10-01T07:41:21.748Z,1.17
2022-10-01T07:42:24.766Z,1.32
2022-10-01T07:43:27.777Z,1.32
2022-10-01T07:45:02.405Z,1.17
2022-10-01T07:46:06.204Z,1.17
2022-10-01T07:47:09.318Z,1.17
2022-10-01T07:48:44.057Z,1.32
2022-10-01T07:49:47.116Z,1.17
2022-10-01T07:50:50.092Z,1.32
2022-10-01T07:52:30.319Z,1.17
2022-10-01T07:53:33.127Z,1.17
2022-10-01T07:54:35.978Z,1.47
2022-10-01T07:56:10.650Z,1.47
2022-10-01T07:57:13.531Z,1.32
2022-10-01T07:58:16.611Z,1.32
2022-10-01T07:59:55.562Z,1.32
2022-10-01T08:00:40.044Z,1.47
2022-10-01T08:01:44.735Z,1.32
2022-10-01T08:02:48.027Z,1.32
2022-10-01T08:04:23.082Z,1.32
2022-10-01T08:05:25.993Z,1.32
2022-10-01T08:06:34.579Z,1.47
2022-10-01T08:08:09.523Z,1.47
2022-10-01T08:09:12.333Z,1.32
2022-10-01T08:10:15.100Z,1.47
2022-10-01T08:11:50.355Z,1.47
2022-10-01T08:12:53.060Z,1.905
2022-10-01T08:13:56.050Z,1.905
2022-10-01T08:15:30.728Z,1.47
2022-10-01T08:16:34.079Z,1.32
2022-10-01T08:17:40.937Z,1.32
2022-10-01T08:19:15.665Z,1.32
2022-10-01T08:20:18.558Z,1.32
2022-10-01T08:21:21.381Z,1.32
2022-10-01T08:22:59.523Z,1.32
2022-10-01T08:24:02.439Z,1.32
2022-10-01T08:25:05.333Z,1.32
2022-10-01T08:26:40.177Z,1.32
2022-10-01T08:27:43.416Z,1.32
2022-10-01T08:28:46.826Z,1.32
2022-10-01T08:30:25.597Z,1.32
2022-10-01T08:31:28.981Z,1.17
2022-10-01T08:32:32.192Z,1.32
2022-10-01T08:34:07.012Z,1.32
2022-10-01T08:35:13.854Z,1.32
2022-10-01T08:36:16.778Z,1.47
2022-10-01T08:37:51.773Z,1.32
2022-10-01T08:38:54.861Z,1.47
2022-10-01T08:39:57.805Z,1.47
2022-10-01T08:41:36.506Z,1.32
2022-10-01T08:42:39.557Z,1.32
2022-10-01T08:43:42.514Z,1.47
2022-10-01T08:45:17.234Z,1.47
2022-10-01T08:46:20.600Z,1.47
2022-10-01T08:47:23.638Z,1.47
2022-10-01T08:49:03.100Z,1.32
2022-10-01T08:50:05.840Z,1.47
2022-10-01T08:51:08.811Z,1.47
2022-10-01T08:52:44.348Z,1.47
2022-10-01T08:53:47.307Z,1.47
2022-10-01T08:54:50.211Z,1.47
2022-10-01T08:56:24.876Z,1.47
2022-10-01T08:57:27.906Z,1.47
2022-10-01T08:58:30.921Z,1.47
2022-10-01T09:00:40.869Z,1.755
2022-10-01T09:01:45.504Z,1.755
2022-10-01T09:02:48.566Z,2.055
2022-10-01T09:04:23.888Z,2.055
2022-10-01T09:05:30.072Z,2.055
2022-10-01T09:06:32.997Z,1.755
2022-10-01T09:08:08.048Z,1.47
2022-10-01T09:09:10.951Z,1.47
2022-10-01T09:10:13.893Z,1.47
2022-10-01T09:11:49.458Z,1.47
2022-10-01T09:12:52.302Z,1.47
2022-10-01T09:14:00.605Z,1.32
2022-10-01T09:15:35.435Z,1.02
2022-10-01T09:16:38.996Z,0.585
2022-10-01T09:17:42.248Z,0.435
2022-10-01T09:19:17.364Z,0.435
2022-10-01T09:20:20.214Z,0.585
2022-10-01T09:21:23.158Z,0.585
2022-10-01T09:22:58.250Z,1.02
2022-10-01T09:24:01.197Z,1.02
2022-10-01T09:25:04.289Z,1.02
2022-10-01T09:26:42.822Z,1.17
2022-10-01T09:27:45.992Z,1.32
2022-10-01T09:28:49.691Z,1.47
2022-10-01T09:30:24.741Z,1.32
2022-10-01T09:31:28.155Z,1.32
2022-10-01T09:32:31.460Z,1.47
2022-10-01T09:34:06.306Z,1.47
2022-10-01T09:35:15.544Z,1.905
2022-10-01T09:36:18.411Z,1.905
2022-10-01T09:37:53.227Z,1.47
2022-10-01T09:38:56.394Z,1.32
2022-10-01T09:39:59.211Z,1.47
2022-10-01T09:41:34.363Z,1.905
2022-10-01T09:42:37.763Z,2.19
2022-10-01T09:43:40.812Z,2.055
2022-10-01T09:45:20.874Z,1.755
2022-10-01T09:46:24.530Z,1.755
2022-10-01T09:47:27.593Z,1.905
2022-10-01T09:49:02.571Z,2.055
2022-10-01T09:50:05.497Z,1.905
2022-10-01T09:51:08.508Z,1.755
2022-10-01T09:52:49.103Z,1.47
2022-10-01T09:53:52.202Z,2.19
2022-10-01T09:54:54.988Z,1.47
2022-10-01T09:56:29.949Z,1.17
2022-10-01T09:57:32.806Z,1.755
2022-10-01T09:58:35.665Z,2.055
2022-10-01T10:00:40.242Z,1.755
2022-10-01T10:01:44.732Z,2.19
2022-10-01T10:02:55.183Z,2.055
2022-10-01T10:04:36.756Z,1.755
2022-10-01T10:05:39.764Z,1.905
2022-10-01T10:06:44.088Z,1.755
2022-10-01T10:08:19.097Z,2.19
2022-10-01T10:09:22.131Z,2.34
2022-10-01T10:10:30.991Z,2.34
2022-10-01T10:12:06.054Z,1.905
2022-10-01T10:13:08.973Z,1.755
2022-10-01T10:14:11.965Z,1.755
2022-10-01T10:15:47.443Z,2.19
2022-10-01T10:16:50.961Z,2.055
2022-10-01T10:17:54.146Z,1.905
2022-10-01T10:19:32.784Z,2.055
2022-10-01T10:20:35.854Z,2.055
2022-10-01T10:21:38.649Z,1.905
2022-10-01T10:23:13.392Z,1.905
2022-10-01T10:24:16.570Z,1.755
2022-10-01T10:25:19.565Z,1.47
2022-10-01T10:26:55.769Z,1.47
2022-10-01T10:27:59.208Z,1.32
2022-10-01T10:29:07.739Z,1.905
2022-10-01T10:30:42.834Z,2.79
2022-10-01T10:31:46.334Z,2.49
2022-10-01T10:32:49.397Z,2.925
2022-10-01T10:34:24.427Z,2.34
2022-10-01T10:35:31.220Z,2.49
2022-10-01T10:36:34.664Z,2.49
2022-10-01T10:38:09.522Z,1.755
2022-10-01T10:39:12.368Z,1.755
2022-10-01T10:40:15.339Z,1.47
2022-10-01T10:41:51.215Z,1.32
2022-10-01T10:42:54.052Z,1.32
2022-10-01T10:43:57.061Z,1.17
2022-10-01T10:45:32.061Z,1.32
2022-10-01T10:46:36.054Z,1.47
2022-10-01T10:47:39.010Z,1.47
2022-10-01T10:49:13.835Z,1.47
2022-10-01T10:50:16.667Z,1.755
2022-10-01T10:51:19.737Z,2.19
2022-10-01T10:52:57.384Z,2.055
2022-10-01T10:54:00.411Z,1.755
2022-10-01T10:55:03.434Z,1.755
2022-10-01T10:56:38.692Z,1.47
2022-10-01T10:57:41.877Z,1.47
2022-10-01T10:58:44.714Z,1.47
2022-10-01T11:00:39.880Z,1.47
2022-10-01T11:01:43.907Z,1.47
2022-10-01T11:02:47.681Z,1.755
2022-10-01T11:04:22.605Z,1.755
2022-10-01T11:05:25.691Z,1.755
2022-10-01T11:06:28.500Z,1.755
2022-10-01T11:08:03.433Z,1.755
2022-10-01T11:09:06.449Z,1.755
2022-10-01T11:10:09.255Z,1.755
2022-10-01T11:11:44.621Z,1.755
2022-10-01T11:12:47.552Z,1.755
2022-10-01T11:13:50.579Z,1.905
2022-10-01T11:15:32.047Z,2.055
2022-10-01T11:16:35.978Z,2.19
2022-10-01T11:17:39.196Z,2.34
2022-10-01T11:19:14.432Z,2.49
2022-10-01T11:20:20.499Z,2.49
2022-10-01T11:21:23.948Z,2.34
2022-10-01T11:22:58.785Z,1.905
2022-10-01T11:24:01.619Z,2.055
2022-10-01T11:25:04.560Z,2.19
2022-10-01T11:26:40.111Z,2.49
2022-10-01T11:27:43.103Z,2.49
2022-10-01T11:28:46.177Z,2.64
2022-10-01T11:30:20.815Z,2.64
2022-10-01T11:31:24.195Z,2.49
2022-10-01T11:32:27.181Z,2.19
2022-10-01T11:34:02.001Z,2.49
2022-10-01T11:35:05.058Z,2.64
2022-10-01T11:36:08.723Z,2.49
2022-10-01T11:37:44.368Z,2.19
2022-10-01T11:38:47.185Z,2.19
2022-10-01T11:39:50.120Z,2.19
2022-10-01T11:41:25.100Z,2.055
2022-10-01T11:42:27.984Z,2.19
2022-10-01T11:43:30.789Z,2.64
2022-10-01T11:45:11.975Z,2.49
2022-10-01T11:46:14.974Z,2.055
2022-10-01T11:47:18.106Z,1.905
2022-10-01T11:48:52.852Z,1.755
2022-10-01T11:49:55.833Z,1.755
2022-10-01T11:51:02.040Z,1.755
2022-10-01T11:52:36.920Z,1.47
2022-10-01T11:53:40.065Z,1.47
2022-10-01T11:54:43.265Z,1.47
2022-10-01T11:56:18.025Z,1.755
2022-10-01T11:57:20.753Z,1.755
2022-10-01T11:58:23.833Z,1.755
2022-10-01T11:59:58.646Z,1.47
2022-10-01T12:00:44.327Z,1.47
2022-10-01T12:01:47.830Z,1.755
2022-10-01T12:02:51.213Z,1.755
2022-10-01T12:04:26.183Z,1.905
2022-10-01T12:05:29.837Z,1.905
2022-10-01T12:06:40.482Z,2.055
2022-10-01T12:08:16.133Z,2.055
2022-10-01T12:09:19.146Z,2.055
2022-10-01T12:10:22.389Z,1.905
2022-10-01T12:11:57.291Z,1.905
2022-10-01T12:13:00.384Z,2.19
2022-10-01T12:14:03.393Z,2.64
2022-10-01T12:15:38.307Z,2.64
2022-10-01T12:16:42.299Z,2.79
2022-10-01T12:17:45.549Z,2.49
2022-10-01T12:19:20.326Z,2.49
2022-10-01T12:20:23.261Z,2.055
2022-10-01T12:21:26.466Z,1.905
2022-10-01T12:23:01.445Z,1.755
2022-10-01T12:24:04.309Z,1.47
2022-10-01T12:25:07.322Z,1.47
2022-10-01T12:26:43.125Z,1.47
2022-10-01T12:27:46.056Z,1.32
2022-10-01T12:29:00.126Z,1.32
2022-10-01T12:30:35.374Z,1.32
2022-10-01T12:31:39.102Z,1.32
2022-10-01T12:32:42.175Z,1.32
2022-10-01T12:34:17.219Z,1.32
2022-10-01T12:35:22.753Z,1.32
2022-10-01T12:36:25.937Z,1.32
2022-10-01T12:38:01.020Z,1.32
2022-10-01T12:39:04.004Z,1.32
2022-10-01T12:40:07.065Z,1.32
2022-10-01T12:41:42.030Z,1.32
2022-10-01T12:42:44.859Z,1.32
2022-10-01T12:43:47.971Z,1.17
2022-10-01T12:45:22.574Z,1.17
2022-10-01T12:46:25.945Z,1.32
2022-10-01T12:47:28.990Z,1.32
2022-10-01T12:49:03.813Z,1.32
2022-10-01T12:50:06.617Z,1.32
2022-10-01T12:51:09.479Z,1.32
2022-10-01T12:52:44.329Z,1.47
2022-10-01T12:53:47.323Z,1.47
2022-10-01T12:54:50.153Z,1.47
2022-10-01T12:56:25.356Z,1.755
2022-10-01T12:57:28.468Z,1.905
2022-10-01T12:58:31.550Z,1.905
2022-10-01T13:00:40.606Z,1.755
2022-10-01T13:01:44.068Z,1.755
2022-10-01T13:02:47.561Z,1.755
2022-10-01T13:04:26.103Z,1.755
2022-10-01T13:05:29.077Z,1.47
2022-10-01T13:06:32.480Z,1.755
2022-10-01T13:08:07.672Z,2.925
2022-10-01T13:09:10.682Z,1.47
2022-10-01T13:10:17.279Z,2.79
2022-10-01T13:11:52.016Z,1.47
2022-10-01T13:12:54.915Z,1.47
2022-10-01T13:13:57.893Z,2.925
2022-10-01T13:15:32.603Z,1.47
2022-10-01T13:16:36.118Z,3.075
2022-10-01T13:17:45.803Z,1.755
2022-10-01T13:19:20.820Z,1.755
2022-10-01T13:20:23.929Z,1.905
2022-10-01T13:21:26.931Z,1.905
2022-10-01T13:23:02.044Z,1.755
2022-10-01T13:24:04.966Z,2.055
2022-10-01T13:25:08.384Z,2.055
2022-10-01T13:26:44.333Z,2.19
2022-10-01T13:27:47.328Z,2.055
2022-10-01T13:28:50.616Z,1.905
2022-10-01T13:30:25.851Z,1.755
2022-10-01T13:31:29.208Z,1.32
2022-10-01T13:32:32.409Z,1.17
2022-10-01T13:34:07.219Z,1.32
2022-10-01T13:35:10.045Z,1.32
2022-10-01T13:36:13.076Z,1.32
2022-10-01T13:37:48.374Z,1.17
2022-10-01T13:38:51.507Z,1.32
2022-10-01T13:40:02.138Z,1.47
2022-10-01T13:41:37.468Z,2.19
2022-10-01T13:42:40.702Z,2.055
2022-10-01T13:43:43.550Z,1.905
2022-10-01T13:45:22.488Z,1.905
2022-10-01T13:46:26.412Z,2.055
2022-10-01T13:47:29.497Z,1.905
2022-10-01T13:49:04.437Z,1.905
2022-10-01T13:50:07.474Z,2.19
2022-10-01T13:51:10.711Z,2.34
2022-10-01T13:52:45.447Z,2.19
2022-10-01T13:53:48.438Z,2.19
2022-10-01T13:54:51.337Z,2.34
2022-10-01T13:56:26.454Z,2.19
2022-10-01T13:57:29.476Z,2.19
2022-10-01T13:58:32.413Z,2.49
2022-10-01T14:00:39.819Z,2.19
2022-10-01T14:01:47.406Z,2.055
2022-10-01T14:02:51.458Z,1.02
2022-10-01T14:04:26.321Z,0.885
2022-10-01T14:05:29.237Z,1.02
2022-10-01T14:06:32.677Z,1.02
2022-10-01T14:08:11.533Z,0.885
2022-10-01T14:09:14.926Z,0.735
2022-10-01T14:10:17.900Z,0.585
2022-10-01T14:11:52.782Z,0.585
2022-10-01T14:12:55.989Z,0.885
2022-10-01T14:13:59.044Z,1.02
2022-10-01T14:15:34.374Z,1.32
2022-10-01T14:16:38.457Z,1.47
2022-10-01T14:17:41.371Z,1.47
2022-10-01T14:19:16.545Z,1.32
2022-10-01T14:20:19.388Z,1.32
2022-10-01T14:21:22.489Z,1.17
2022-10-01T14:22:57.490Z,1.02
2022-10-01T14:24:00.617Z,1.02
2022-10-01T14:25:03.674Z,0.885
2022-10-01T14:26:39.193Z,1.02
2022-10-01T14:27:42.562Z,0.885
2022-10-01T14:28:46.076Z,1.02
2022-10-01T14:30:20.989Z,0.885
2022-10-01T14:31:24.489Z,1.32
2022-10-01T14:32:27.873Z,1.32
2022-10-01T14:34:02.721Z,1.47
2022-10-01T14:35:06.080Z,1.32
2022-10-01T14:36:08.996Z,1.17
2022-10-01T14:37:45.533Z,1.17
2022-10-01T14:38:48.378Z,1.02
2022-10-01T14:39:51.400Z,1.17
2022-10-01T14:41:26.467Z,1.02
2022-10-01T14:42:39.305Z,1.02
2022-10-01T14:43:42.421Z,1.02
2022-10-01T14:45:17.305Z,1.02
2022-10-01T14:46:20.617Z,0.885
2022-10-01T14:47:23.530Z,1.02
2022-10-01T14:48:58.129Z,0.885
2022-10-01T14:50:00.854Z,1.02
2022-10-01T14:51:06.250Z,0.885
2022-10-01T14:52:40.760Z,1.02
2022-10-01T14:53:43.554Z,0.885
2022-10-01T14:54:46.527Z,0.885
2022-10-01T14:56:21.608Z,0.885
2022-10-01T14:57:27.373Z,1.02
2022-10-01T14:58:30.345Z,1.02
2022-10-01T15:00:40.886Z,0.885
2022-10-01T15:01:43.669Z,1.02
2022-10-01T15:02:46.697Z,1.02
2022-10-01T15:04:22.366Z,0.885
2022-10-01T15:05:31.528Z,0.885
2022-10-01T15:06:34.768Z,0.885
2022-10-01T15:08:09.889Z,0.885
2022-10-01T15:09:12.782Z,0.885
2022-10-01T15:10:15.658Z,1.02
2022-10-01T15:11:55.920Z,0.885
2022-10-01T15:12:58.904Z,0.885
2022-10-01T15:14:01.700Z,0.735
2022-10-01T15:15:36.424Z,0.735
2022-10-01T15:16:40.534Z,0.585
2022-10-01T15:17:43.264Z,0.585
2022-10-01T15:19:18.072Z,0.735
2022-10-01T15:20:20.843Z,0.735
2022-10-01T15:21:23.682Z,0.585
2022-10-01T15:23:01.402Z,0.585
2022-10-01T15:24:04.837Z,0.735
2022-10-01T15:25:07.658Z,0.585
2022-10-01T15:26:42.934Z,0.735
2022-10-01T15:27:45.933Z,0.735
2022-10-01T15:28:49.257Z,0.585
2022-10-01T15:30:24.825Z,0.735
2022-10-01T15:31:28.456Z,0.735
2022-10-01T15:32:31.525Z,0.585
2022-10-01T15:34:05.980Z,0.585
2022-10-01T15:35:09.019Z,0.585
2022-10-01T15:36:12.092Z,0.585
2022-10-01T15:37:50.279Z,0.585
2022-10-01T15:38:53.779Z,0.585
2022-10-01T15:39:57.084Z,0.735
2022-10-01T15:41:59.081Z,0.585
2022-10-01T15:43:02.006Z,0.585
2022-10-01T15:44:04.935Z,0.585
2022-10-01T15:45:44.029Z,0.585
2022-10-01T15:46:48.127Z,0.585
2022-10-01T15:47:51.164Z,0.585
2022-10-01T15:49:26.134Z,0.585
2022-10-01T15:50:29.128Z,0.435
2022-10-01T15:51:32.153Z,0.435
2022-10-01T15:53:12.441Z,0.435
2022-10-01T15:54:15.395Z,0.585
2022-10-01T15:55:18.393Z,0.585
2022-10-01T15:56:53.637Z,0.585
2022-10-01T15:57:56.688Z,0.435
2022-10-01T15:58:59.585Z,0.435
2022-10-01T16:00:40.814Z,0.435
2022-10-01T16:01:50.772Z,0.435
2022-10-01T16:02:53.753Z,0
2022-10-01T16:04:28.465Z,0
2022-10-01T16:06:09.522Z,0
2022-10-01T16:07:12.516Z,0
2022-10-01T16:08:15.450Z,0.435
2022-10-01T16:09:50.277Z,0.435
2022-10-01T16:10:53.241Z,0.435
2022-10-01T16:11:56.399Z,0.435
2022-10-01T16:13:31.139Z,0.435
2022-10-01T16:14:33.969Z,0
2022-10-01T16:15:36.737Z,0.435
2022-10-01T16:17:11.739Z,0.435
2022-10-01T16:18:14.548Z,0.435
2022-10-01T16:19:17.674Z,0.435
2022-10-01T16:20:56.674Z,0
2022-10-01T16:21:59.439Z,0
2022-10-01T16:23:02.312Z,0.435
2022-10-01T16:24:36.960Z,0
2022-10-01T16:25:39.780Z,0
2022-10-01T16:26:43.096Z,0
2022-10-01T16:28:18.492Z,0
2022-10-01T16:29:21.466Z,0
2022-10-01T16:30:29.407Z,0
2022-10-01T16:32:04.775Z,0
2022-10-01T16:33:07.508Z,0
2022-10-01T16:34:10.412Z,0
2022-10-01T16:35:44.900Z,0
2022-10-01T16:36:48.139Z,0
2022-10-01T16:37:50.816Z,0
2022-10-01T16:39:25.532Z,0
2022-10-01T16:40:33.076Z,0
2022-10-01T16:41:35.710Z,0
2022-10-01T16:43:33.388Z,0
2022-10-01T16:44:36.123Z,0
2022-10-01T16:45:39.262Z,0
2022-10-01T16:47:14.456Z,0
2022-10-01T16:48:17.499Z,0
2022-10-01T16:49:20.264Z,0
2022-10-01T16:50:55.263Z,0
2022-10-01T16:51:58.400Z,0
2022-10-01T16:53:01.321Z,0
2022-10-01T16:54:35.820Z,0
2022-10-01T16:55:38.595Z,0
2022-10-01T16:56:47.720Z,0
2022-10-01T16:58:22.309Z,0
2022-10-01T16:59:25.172Z,0
2022-10-01T17:00:40.450Z,0
2022-10-01T17:01:43.642Z,0
2022-10-01T17:02:47.039Z,0
2022-10-01T17:04:21.718Z,0